Saturday, August 29, 2015, 4:54 PM EDT

KOXB, Ocean City Municipal Airport

Location: Berlin, MD, United States Lat: 38.317
Local Time: 4:54 PM EDT (20:54 GMT) Lon: -75.117
Time Zone: US/Eastern Elev: 13 ft

Show me the last for .
Show Decoded

2015-08-29 15:53 METAR KOXB 291953Z AUTO 17007KT 140V210 10SM CLR 27/15 A3017 RMK AO2 SLP215
                 T02670150 TSNO =
2015-08-29 14:53 METAR KOXB 291853Z AUTO 15006KT 10SM CLR 27/16 A3018 RMK AO2 SLP218 T02670161
                 TSNO =
2015-08-29 13:53 METAR KOXB 291753Z AUTO VRB06KT 10SM CLR 27/15 A3020 RMK AO2 SLP224 T02670150
                 10267 20194 58016 TSNO =
2015-08-29 12:53 METAR KOXB 291653Z AUTO 13008KT 10SM CLR 27/16 A3021 RMK AO2 SLP231 T02670156
                 TSNO =
2015-08-29 11:53 METAR KOXB 291553Z AUTO VRB06KT 10SM CLR 27/16 A3024 RMK AO2 SLP238 T02670156
                 TSNO =
2015-08-29 10:53 METAR KOXB 291453Z AUTO 14006KT 10SM CLR 26/15 A3024 RMK AO2 SLP241 T02610150
                 52004 TSNO =
2015-08-29 09:53 METAR KOXB 291353Z AUTO 20003KT 10SM CLR 25/14 A3024 RMK AO2 SLP240 T02500144
                 TSNO =
2015-08-29 08:53 METAR KOXB 291253Z AUTO 00000KT 10SM CLR 24/16 A3024 RMK AO2 SLP238 T02390156
                 TSNO =
2015-08-29 07:53 METAR KOXB 291153Z AUTO 00000KT 10SM CLR 19/16 A3023 RMK AO2 SLP237 T01940161
                 10194 20133 53012 TSNO =
2015-08-29 06:53 METAR KOXB 291053Z AUTO 00000KT 10SM CLR 14/12 A3021 RMK AO2 SLP231 T01390122
                 TSNO =
2015-08-29 05:53 METAR KOXB 290953Z AUTO 00000KT 10SM CLR 14/13 A3020 RMK AO2 SLP226 T01440128
                 TSNO =
2015-08-29 04:53 METAR KOXB 290853Z AUTO 00000KT 10SM CLR 14/13 A3020 RMK AO2 SLP225 T01440128
                 56002 TSNO =
2015-08-29 03:53 METAR KOXB 290753Z AUTO 00000KT 10SM CLR 14/13 A3020 RMK AO2 SLP226 T01440128
                 TSNO =
2015-08-29 02:53 METAR KOXB 290653Z AUTO 00000KT 10SM CLR 14/13 A3020 RMK AO2 SLP225 T01390128
                 TSNO =
2015-08-29 01:53 METAR KOXB 290553Z AUTO 00000KT 10SM CLR 15/13 A3020 RMK AO2 SLP227 T01500128
                 10222 20150 58001 TSNO =
2015-08-29 00:53 METAR KOXB 290453Z AUTO 00000KT 10SM CLR 16/14 A3021 RMK AO2 SLP229 T01560139
                 402670139 TSNO =
2015-08-28 23:53 METAR KOXB 290353Z AUTO 00000KT 10SM CLR 16/14 A3020 RMK AO2 SLP226 T01610139
                 TSNO =
2015-08-28 22:53 METAR KOXB 290253Z AUTO 00000KT 10SM CLR 17/14 A3020 RMK AO2 SLP228 T01670139
                 50013 TSNO =
2015-08-28 20:53 METAR KOXB 290053Z AUTO 00000KT 10SM CLR 18/14 A3018 RMK AO2 SLP221 T01830139
                 TSNO =
2015-08-28 19:53 METAR KOXB 282353Z AUTO 17003KT 10SM CLR 22/13 A3017 RMK AO2 SLP215 T02220133
                 10267 20222 53002 TSNO =
2015-08-28 18:53 METAR KOXB 282253Z AUTO 12004KT 10SM CLR 24/13 A3017 RMK AO2 SLP214 T02390128
                 TSNO =
2015-08-28 17:53 METAR KOXB 282153Z AUTO 11006KT 10SM CLR 25/13 A3016 RMK AO2 SLP213 T02500128
                 TSNO =

Support USWX by starting your Amazon purchase here.